Terminal Aerodrome Forecast
Issued by NWS Wilmington, OH

Current Version | Previous Version | Graphics & Text | Print | Product List | Glossary On
Versions: 1 2 3 4 5 6 7 8 9 10 11 12 13 14 15 16 17 18
242
FTUS41 KILN 120529
TAFDAY
TAF
KDAY 120529Z 1206/1306 19003KT P6SM BKN120
     FM121500 24008KT P6SM BKN035
     FM122000 28012G22KT 5SM -SHSN OVC018
     FM122300 30018G29KT 2SM -SHSN OVC018
     FM130300 31016G25KT 4SM -SHSN OVC025=

USA.gov is the U.S. government's official web portal to all federal, state and local government web resources and services.